createdAt,value
2022-08-25T00:01:52.650Z,22.91
2022-08-25T00:04:23.171Z,23.02
2022-08-25T00:06:51.255Z,22.86
2022-08-25T00:09:21.411Z,22.63
2022-08-25T00:11:49.483Z,22.76
2022-08-25T00:14:21.015Z,22.57
2022-08-25T00:16:48.490Z,22.47
2022-08-25T00:19:20.819Z,22.69
2022-08-25T00:21:48.586Z,22.39
2022-08-25T00:24:17.800Z,22.50
2022-08-25T00:26:49.748Z,22.41
2022-08-25T00:29:17.705Z,22.44
2022-08-25T00:31:45.500Z,22.11
2022-08-25T00:34:16.969Z,22.16
2022-08-25T00:36:44.936Z,21.73
2022-08-25T00:39:12.046Z,21.59
2022-08-25T00:41:42.378Z,21.73
2022-08-25T00:44:12.620Z,21.61
2022-08-25T00:46:44.167Z,21.73
2022-08-25T00:49:22.474Z,21.81
2022-08-25T00:52:21.579Z,21.81
2022-08-25T00:55:07.956Z,22.11
2022-08-25T00:57:40.325Z,22.09
2022-08-25T01:00:13.854Z,22.25
2022-08-25T01:02:41.125Z,22.13
2022-08-25T01:05:08.876Z,22.31
2022-08-25T01:07:37.277Z,22.11
2022-08-25T01:10:07.835Z,22.30
2022-08-25T01:12:37.346Z,22.26
2022-08-25T01:15:06.329Z,22.07
2022-08-25T01:17:50.090Z,22.17
2022-08-25T01:20:19.816Z,22.01
2022-08-25T01:22:54.985Z,22.16
2022-08-25T01:25:25.370Z,22.12
2022-08-25T01:27:52.733Z,22.19
2022-08-25T01:30:19.865Z,22.15
2022-08-25T01:32:47.074Z,22.31
2022-08-25T01:35:14.207Z,22.24
2022-08-25T01:37:41.538Z,22.18
2022-08-25T01:40:09.341Z,22.21
2022-08-25T01:43:00.848Z,22.10
2022-08-25T01:45:28.847Z,22.25
2022-08-25T01:47:56.802Z,22.28
2022-08-25T01:50:24.546Z,22.26
2022-08-25T01:52:56.304Z,22.02
2022-08-25T01:55:23.485Z,21.91
2022-08-25T01:57:50.623Z,21.84
2022-08-25T02:00:19.847Z,21.96
2022-08-25T02:02:46.842Z,21.94
2022-08-25T02:05:23.318Z,22.05
2022-08-25T02:07:50.990Z,22.07
2022-08-25T02:10:18.198Z,21.96
2022-08-25T02:12:45.352Z,21.89
2022-08-25T02:15:12.615Z,21.77
2022-08-25T02:17:39.826Z,21.66
2022-08-25T02:20:10.941Z,21.75
2022-08-25T02:22:38.100Z,21.53
2022-08-25T02:25:06.365Z,21.40
2022-08-25T02:27:33.617Z,21.45
2022-08-25T02:30:00.721Z,21.55
2022-08-25T02:32:27.901Z,21.48
2022-08-25T02:34:55.023Z,21.47
2022-08-25T02:37:22.241Z,21.53
2022-08-25T02:39:50.172Z,21.13
2022-08-25T02:42:17.385Z,21.32
2022-08-25T02:44:44.505Z,20.95
2022-08-25T02:47:11.677Z,20.95
2022-08-25T02:49:38.851Z,21.18
2022-08-25T02:52:06.064Z,21.12
2022-08-25T02:54:33.197Z,21.19
2022-08-25T02:57:00.369Z,20.97
2022-08-25T02:59:27.445Z,21.02
2022-08-25T03:01:54.632Z,20.94
2022-08-25T03:04:22.123Z,21.06
2022-08-25T03:06:49.438Z,21.11
2022-08-25T03:09:16.683Z,20.83
2022-08-25T03:11:43.926Z,20.90
2022-08-25T03:14:11.097Z,20.55
2022-08-25T03:16:38.270Z,20.73
2022-08-25T03:19:06.039Z,20.89
2022-08-25T03:21:33.344Z,21.08
2022-08-25T03:24:01.032Z,21.13
2022-08-25T03:26:47.055Z,21.24
2022-08-25T03:29:14.326Z,21.22
2022-08-25T03:31:44.651Z,21.11
2022-08-25T03:34:13.819Z,21.12
2022-08-25T03:36:40.915Z,21.19
2022-08-25T03:39:08.444Z,21.25
2022-08-25T03:41:35.865Z,21.21
2022-08-25T03:44:05.005Z,21.06
2022-08-25T03:46:35.381Z,20.98
2022-08-25T03:49:04.207Z,20.95
2022-08-25T03:51:34.817Z,20.70
2022-08-25T03:54:03.132Z,20.45
2022-08-25T03:56:31.198Z,20.46
2022-08-25T03:58:58.878Z,20.52
2022-08-25T04:01:26.979Z,20.66
2022-08-25T04:03:54.597Z,20.50
2022-08-25T04:06:22.363Z,20.42
2022-08-25T04:08:52.544Z,20.57
2022-08-25T04:11:23.113Z,20.26
2022-08-25T04:13:51.855Z,19.99
2022-08-25T04:16:22.877Z,19.98
2022-08-25T04:18:52.453Z,20.15
2022-08-25T04:21:21.048Z,20.44
2022-08-25T04:23:49.625Z,20.21
2022-08-25T04:26:21.279Z,20.26
2022-08-25T04:28:49.427Z,20.30
2022-08-25T04:31:18.456Z,20.37
2022-08-25T04:33:47.921Z,20.31
2022-08-25T04:36:16.843Z,20.22
2022-08-25T04:38:45.019Z,20.24
2022-08-25T04:41:13.816Z,20.25
2022-08-25T04:43:42.620Z,20.26
2022-08-25T04:46:22.511Z,20.32
2022-08-25T04:48:51.769Z,20.31
2022-08-25T04:51:20.361Z,20.20
2022-08-25T04:53:47.367Z,20.17
2022-08-25T04:56:17.615Z,20.33
2022-08-25T04:58:47.042Z,20.50
2022-08-25T05:01:17.530Z,20.48
2022-08-25T05:03:46.004Z,20.48
2022-08-25T05:06:16.245Z,20.50
2022-08-25T05:08:46.072Z,20.47
2022-08-25T05:11:16.561Z,20.57
2022-08-25T05:13:50.070Z,20.59
2022-08-25T05:16:20.782Z,20.69
2022-08-25T05:18:48.015Z,20.51
2022-08-25T05:21:19.094Z,20.58
2022-08-25T05:23:46.975Z,20.64
2022-08-25T05:26:22.015Z,20.51
2022-08-25T05:28:53.186Z,20.69
2022-08-25T05:31:21.752Z,20.67
2022-08-25T05:33:49.053Z,20.82
2022-08-25T05:36:17.179Z,20.54
2022-08-25T05:38:44.331Z,20.21
2022-08-25T05:41:16.017Z,20.22
2022-08-25T05:43:46.665Z,20.08
2022-08-25T05:46:14.761Z,20.05
2022-08-25T05:48:42.397Z,20.15
2022-08-25T05:51:10.904Z,20.50
2022-08-25T05:53:41.393Z,20.61
2022-08-25T05:56:08.970Z,20.61
2022-08-25T05:58:37.583Z,20.97
2022-08-25T06:01:23.711Z,20.96
2022-08-25T06:03:54.472Z,21.28
2022-08-25T06:06:24.298Z,21.33
2022-08-25T06:08:51.834Z,21.40
2022-08-25T06:11:19.367Z,21.20
2022-08-25T06:13:46.570Z,21.49
2022-08-25T06:16:13.787Z,21.53
2022-08-25T06:18:40.997Z,21.61
2022-08-25T06:21:13.232Z,21.63
2022-08-25T06:23:41.490Z,21.66
2022-08-25T06:26:20.698Z,21.87
2022-08-25T06:28:50.306Z,21.96
2022-08-25T06:31:18.768Z,22.01
2022-08-25T06:33:46.303Z,22.14
2022-08-25T06:36:13.825Z,22.21
2022-08-25T06:38:41.351Z,22.26
2022-08-25T06:41:12.684Z,22.30
2022-08-25T06:43:47.343Z,22.40
2022-08-25T06:46:20.186Z,22.47
2022-08-25T06:48:48.342Z,22.61
2022-08-25T06:51:18.716Z,22.57
2022-08-25T06:53:47.633Z,22.57
2022-08-25T06:56:19.760Z,22.59
2022-08-25T06:58:47.898Z,22.73
2022-08-25T07:01:23.413Z,22.76
2022-08-25T07:03:59.685Z,22.74
2022-08-25T07:06:31.551Z,22.76
2022-08-25T07:08:59.507Z,22.85
2022-08-25T07:11:27.584Z,22.95
2022-08-25T07:13:55.060Z,23.05
2022-08-25T07:16:22.334Z,23.09
2022-08-25T07:18:50.935Z,23.10
2022-08-25T07:21:21.690Z,23.14
2022-08-25T07:23:51.654Z,23.17
2022-08-25T07:26:36.641Z,23.26
2022-08-25T07:29:13.933Z,23.18
2022-08-25T07:31:41.169Z,23.29
2022-08-25T07:34:28.510Z,23.42
2022-08-25T07:36:56.980Z,23.51
2022-08-25T07:39:25.107Z,23.54
2022-08-25T07:41:53.168Z,23.54
2022-08-25T07:44:22.558Z,23.65
2022-08-25T07:46:50.565Z,23.54
2022-08-25T07:49:23.260Z,23.70
2022-08-25T07:52:05.437Z,23.81
2022-08-25T07:54:35.579Z,23.74
2022-08-25T07:57:07.744Z,23.78
2022-08-25T07:59:40.118Z,23.88
2022-08-25T08:02:17.966Z,23.98
2022-08-25T08:04:51.242Z,23.97
2022-08-25T08:07:41.875Z,24.05
2022-08-25T08:13:00.895Z,24.18
2022-08-25T08:15:29.715Z,24.22
2022-08-25T08:17:57.906Z,24.22
2022-08-25T08:20:25.699Z,24.29
2022-08-25T08:22:52.893Z,24.27
2022-08-25T08:25:21.415Z,24.36
2022-08-25T08:27:50.775Z,24.42
2022-08-25T08:30:23.823Z,24.49
2022-08-25T08:33:11.274Z,24.56
2022-08-25T08:35:41.064Z,24.66
2022-08-25T08:38:14.859Z,24.59
2022-08-25T08:41:23.091Z,24.54
2022-08-25T08:43:56.315Z,24.75
2022-08-25T08:46:25.934Z,24.73
2022-08-25T08:49:02.580Z,24.75
2022-08-25T08:51:53.225Z,24.78
2022-08-25T08:54:27.842Z,24.86
2022-08-25T08:57:04.217Z,25.00
2022-08-25T08:59:41.841Z,25.13
2022-08-25T09:02:38.513Z,25.19
2022-08-25T09:05:09.723Z,25.32
2022-08-25T09:07:44.937Z,25.26
2022-08-25T09:10:17.325Z,25.40
2022-08-25T09:13:20.289Z,25.47
2022-08-25T09:16:20.405Z,25.38
2022-08-25T09:19:34.379Z,25.49
2022-08-25T09:22:36.409Z,25.55
2022-08-25T09:25:29.494Z,25.73
2022-08-25T09:28:08.150Z,25.73
2022-08-25T09:31:12.148Z,25.73
2022-08-25T09:33:39.596Z,25.80
2022-08-25T09:36:09.050Z,25.82
2022-08-25T09:38:37.045Z,25.81
2022-08-25T09:41:07.181Z,25.86
2022-08-25T09:43:42.069Z,26.04
2022-08-25T09:46:23.553Z,26.04
2022-08-25T09:48:57.115Z,26.17
2022-08-25T09:51:26.545Z,26.25
2022-08-25T09:54:02.205Z,26.21
2022-08-25T09:56:49.695Z,26.32
2022-08-25T09:59:37.362Z,26.32
2022-08-25T10:02:23.840Z,26.32
2022-08-25T10:04:52.230Z,26.43
2022-08-25T10:07:30.382Z,26.23
2022-08-25T10:10:03.512Z,26.48
2022-08-25T10:12:42.659Z,26.52
2022-08-25T10:15:29.868Z,26.62
2022-08-25T10:18:26.025Z,26.55
2022-08-25T10:21:20.058Z,26.46
2022-08-25T10:23:53.383Z,26.55
2022-08-25T10:26:39.513Z,26.55
2022-08-25T10:29:32.529Z,26.35
2022-08-25T10:32:16.328Z,26.83
2022-08-25T10:34:51.637Z,26.98
2022-08-25T10:37:36.622Z,26.85
2022-08-25T10:40:22.440Z,26.99
2022-08-25T10:43:17.443Z,27.15
2022-08-25T10:45:59.180Z,26.85
2022-08-25T10:48:57.960Z,27.20
2022-08-25T10:51:46.736Z,27.16
2022-08-25T10:54:23.913Z,27.24
2022-08-25T10:57:07.159Z,27.17
2022-08-25T11:00:05.163Z,27.44
2022-08-25T11:02:44.551Z,27.41
2022-08-25T11:05:24.656Z,27.46
2022-08-25T11:08:01.041Z,27.57
2022-08-25T11:11:00.227Z,27.74
2022-08-25T11:13:50.441Z,27.57
2022-08-25T11:16:27.016Z,27.61
2022-08-25T11:19:02.607Z,27.36
2022-08-25T11:21:54.577Z,27.32
2022-08-25T11:24:26.569Z,27.10
2022-08-25T11:26:57.365Z,27.47
2022-08-25T11:29:31.213Z,27.57
2022-08-25T11:32:00.933Z,27.82
2022-08-25T11:34:32.789Z,28.14
2022-08-25T11:37:07.803Z,28.34
2022-08-25T11:40:18.950Z,28.13
2022-08-25T11:42:57.521Z,28.39
2022-08-25T11:45:46.750Z,28.51
2022-08-25T11:48:28.316Z,28.38
2022-08-25T11:51:05.175Z,28.16
2022-08-25T11:53:42.826Z,28.38
2022-08-25T11:56:33.158Z,28.41
2022-08-25T11:59:02.343Z,28.38
2022-08-25T12:01:44.599Z,28.51
2022-08-25T12:04:31.700Z,28.28
2022-08-25T12:07:10.999Z,28.29
2022-08-25T12:09:50.046Z,28.58
2022-08-25T12:12:56.983Z,28.24
2022-08-25T12:15:42.274Z,28.27
2022-08-25T12:18:23.348Z,28.59
2022-08-25T12:20:54.978Z,28.87
2022-08-25T12:23:45.071Z,28.74
2022-08-25T12:26:21.415Z,29.07
2022-08-25T12:29:10.451Z,29.04
2022-08-25T12:32:11.834Z,28.83
2022-08-25T12:34:41.779Z,28.85
2022-08-25T12:37:23.933Z,28.51
2022-08-25T12:39:51.478Z,29.08
2022-08-25T12:42:29.410Z,29.31
2022-08-25T12:45:23.566Z,28.87
2022-08-25T12:47:54.498Z,28.72
2022-08-25T12:50:43.283Z,29.22
2022-08-25T12:53:28.049Z,29.24
2022-08-25T12:56:16.457Z,29.43
2022-08-25T12:59:02.664Z,29.63
2022-08-25T13:01:54.967Z,29.22
2022-08-25T13:04:42.003Z,29.36
2022-08-25T13:07:47.570Z,29.52
2022-08-25T13:10:45.975Z,28.69
2022-08-25T13:13:44.509Z,28.79
2022-08-25T13:16:28.391Z,29.70
2022-08-25T13:18:59.007Z,29.93
2022-08-25T13:21:41.593Z,30.24
2022-08-25T13:24:29.615Z,30.21
2022-08-25T13:27:01.041Z,30.24
2022-08-25T13:29:35.072Z,30.29
2022-08-25T13:32:09.481Z,30.05
2022-08-25T13:34:42.570Z,30.45
2022-08-25T13:37:29.607Z,29.79
2022-08-25T13:40:25.891Z,29.84
2022-08-25T13:42:56.466Z,30.20
2022-08-25T13:45:30.062Z,30.40
2022-08-25T13:47:59.255Z,30.62
2022-08-25T13:50:26.872Z,30.72
2022-08-25T13:52:56.013Z,30.86
2022-08-25T13:55:27.433Z,30.64
2022-08-25T13:57:58.091Z,30.90
2022-08-25T14:00:43.181Z,30.96
2022-08-25T14:03:37.389Z,31.05
2022-08-25T14:06:16.407Z,30.67
2022-08-25T14:08:46.469Z,31.12
2022-08-25T14:11:25.383Z,30.82
2022-08-25T14:14:01.448Z,30.90
2022-08-25T14:16:33.327Z,30.87
2022-08-25T14:19:04.609Z,30.91
2022-08-25T14:21:33.829Z,30.95
2022-08-25T14:24:01.822Z,31.33
2022-08-25T14:26:28.985Z,31.53
2022-08-25T14:28:57.800Z,31.61
2022-08-25T14:31:31.612Z,31.67
2022-08-25T14:34:04.868Z,31.09
2022-08-25T14:36:33.978Z,31.39
2022-08-25T14:39:08.639Z,35.42
2022-08-25T14:41:38.898Z,34.13
2022-08-25T14:44:06.952Z,31.95
2022-08-25T14:46:37.111Z,36.74
2022-08-25T14:49:07.416Z,31.33
2022-08-25T14:51:36.214Z,30.24
2022-08-25T14:54:07.234Z,36.09
2022-08-25T14:56:36.154Z,38.87
2022-08-25T14:59:04.812Z,42.22
2022-08-25T15:01:32.604Z,43.06
2022-08-25T15:04:13.000Z,43.24
2022-08-25T15:06:43.747Z,46.35
2022-08-25T15:09:16.105Z,42.26
2022-08-25T15:11:50.641Z,37.36
2022-08-25T15:14:28.995Z,45.97
2022-08-25T15:17:02.018Z,39.07
2022-08-25T15:19:29.515Z,39.33
2022-08-25T15:21:57.970Z,38.78
2022-08-25T15:24:28.331Z,42.27
2022-08-25T15:27:01.377Z,41.83
2022-08-25T15:29:30.327Z,38.14
2022-08-25T15:32:00.543Z,34.58
2022-08-25T15:34:28.626Z,34.74
2022-08-25T15:36:58.311Z,34.33
2022-08-25T15:39:27.526Z,32.81
2022-08-25T15:41:54.728Z,36.79
2022-08-25T15:44:29.253Z,37.67
2022-08-25T15:46:58.757Z,33.51
2022-08-25T15:49:26.903Z,34.88
2022-08-25T15:51:57.013Z,33.87
2022-08-25T15:54:26.634Z,32.90
2022-08-25T15:56:55.769Z,33.14
2022-08-25T15:59:25.206Z,40.86
2022-08-25T16:01:54.032Z,45.17
2022-08-25T16:04:23.461Z,47.04
2022-08-25T16:06:51.898Z,47.45
2022-08-25T16:09:22.835Z,47.97
2022-08-25T16:11:56.619Z,47.85
2022-08-25T16:14:26.057Z,46.16
2022-08-25T16:16:53.176Z,47.30
2022-08-25T16:19:29.439Z,47.79
2022-08-25T16:21:58.082Z,46.74
2022-08-25T16:24:25.531Z,46.81
2022-08-25T16:26:55.537Z,44.24
2022-08-25T16:29:23.815Z,40.64
2022-08-25T16:31:53.291Z,37.43
2022-08-25T16:34:24.661Z,36.66
2022-08-25T16:36:55.859Z,35.41
2022-08-25T16:39:23.977Z,34.95
2022-08-25T16:41:51.915Z,34.70
2022-08-25T16:44:22.429Z,40.17
2022-08-25T16:46:54.210Z,41.79
2022-08-25T16:49:24.195Z,38.50
2022-08-25T16:51:57.152Z,40.30
2022-08-25T16:54:44.933Z,40.78
2022-08-25T16:57:12.280Z,41.30
2022-08-25T16:59:39.489Z,39.16
2022-08-25T17:02:06.765Z,37.88
2022-08-25T17:04:33.971Z,40.79
2022-08-25T17:07:01.906Z,41.63
2022-08-25T17:09:30.027Z,41.42
2022-08-25T17:11:57.580Z,41.31
2022-08-25T17:14:25.049Z,41.34
2022-08-25T17:16:55.015Z,41.32
2022-08-25T17:19:24.889Z,40.89
2022-08-25T17:21:54.357Z,40.04
2022-08-25T17:24:22.410Z,37.76
2022-08-25T17:26:56.860Z,35.83
2022-08-25T17:29:23.973Z,34.76
2022-08-25T17:31:51.674Z,34.26
2022-08-25T17:34:23.072Z,34.53
2022-08-25T17:36:51.561Z,33.75
2022-08-25T17:39:19.774Z,33.66
2022-08-25T17:41:50.523Z,33.17
2022-08-25T17:44:19.510Z,32.93
2022-08-25T17:46:48.011Z,32.25
2022-08-25T17:49:16.997Z,31.99
2022-08-25T17:51:44.176Z,31.71
2022-08-25T17:54:12.794Z,31.51
2022-08-25T17:56:40.154Z,31.08
2022-08-25T17:59:07.508Z,31.39
2022-08-25T18:01:40.259Z,31.25
2022-08-25T18:04:17.532Z,31.29
2022-08-25T18:06:47.475Z,31.24
2022-08-25T18:09:16.021Z,30.97
2022-08-25T18:11:43.488Z,31.05
2022-08-25T18:14:12.558Z,30.71
2022-08-25T18:16:40.789Z,30.37
2022-08-25T18:19:10.751Z,30.17
2022-08-25T18:21:38.337Z,29.91
2022-08-25T18:24:07.859Z,29.90
2022-08-25T18:26:35.597Z,29.66
2022-08-25T18:29:03.587Z,29.26
2022-08-25T18:31:32.367Z,29.11
2022-08-25T18:33:59.760Z,28.77
2022-08-25T18:36:26.928Z,28.73
2022-08-25T18:39:13.583Z,28.82
2022-08-25T18:41:42.399Z,28.34
2022-08-25T18:44:10.925Z,27.90
2022-08-25T18:46:39.810Z,27.98
2022-08-25T18:49:07.107Z,27.82
2022-08-25T18:51:36.212Z,27.80
2022-08-25T18:54:04.241Z,27.60
2022-08-25T18:56:31.680Z,27.68
2022-08-25T18:59:00.100Z,27.77
2022-08-25T19:01:27.416Z,27.40
2022-08-25T19:03:56.468Z,27.17
2022-08-25T19:06:23.906Z,26.94
2022-08-25T19:08:51.122Z,26.98
2022-08-25T19:11:22.207Z,27.41
2022-08-25T19:13:50.807Z,26.92
2022-08-25T19:16:30.587Z,26.73
2022-08-25T19:18:58.349Z,26.74
2022-08-25T19:21:25.849Z,26.52
2022-08-25T19:23:53.460Z,26.61
2022-08-25T19:26:20.951Z,26.72
2022-08-25T19:28:49.867Z,26.38
2022-08-25T19:31:18.656Z,26.35
2022-08-25T19:33:48.090Z,26.28
2022-08-25T19:36:17.619Z,26.33
2022-08-25T19:38:49.392Z,26.41
2022-08-25T19:41:20.508Z,26.26
2022-08-25T19:43:56.459Z,26.28
2022-08-25T19:46:33.040Z,26.54
2022-08-25T19:49:11.569Z,26.15
2022-08-25T19:51:44.174Z,25.98
2022-08-25T19:54:14.107Z,25.98
2022-08-25T19:56:43.652Z,26.03
2022-08-25T19:59:23.172Z,25.94
2022-08-25T20:01:50.379Z,26.04
2022-08-25T20:04:17.631Z,25.99
2022-08-25T20:06:48.445Z,25.86
2022-08-25T20:09:35.573Z,25.92
2022-08-25T20:12:06.303Z,25.94
2022-08-25T20:14:33.925Z,26.14
2022-08-25T20:17:02.765Z,26.14
2022-08-25T20:19:31.068Z,26.01
2022-08-25T20:21:58.947Z,25.80
2022-08-25T20:24:44.691Z,25.79
2022-08-25T20:27:12.095Z,25.92
2022-08-25T20:29:39.295Z,25.72
2022-08-25T20:32:11.840Z,25.59
2022-08-25T20:34:39.156Z,25.66
2022-08-25T20:37:06.867Z,25.78
2022-08-25T20:39:34.082Z,25.62
2022-08-25T20:42:02.270Z,25.58
2022-08-25T20:44:33.676Z,25.37
2022-08-25T20:47:02.813Z,25.32
2022-08-25T20:49:37.711Z,25.49
2022-08-25T20:52:07.472Z,25.39
2022-08-25T20:54:35.266Z,25.16
2022-08-25T20:57:02.759Z,25.21
2022-08-25T20:59:31.803Z,25.58
2022-08-25T21:01:58.950Z,25.43
2022-08-25T21:04:29.124Z,25.34
2022-08-25T21:06:58.020Z,25.52
2022-08-25T21:09:26.501Z,25.60
2022-08-25T21:11:56.674Z,25.66
2022-08-25T21:14:25.495Z,25.41
2022-08-25T21:16:54.374Z,25.21
2022-08-25T21:19:26.256Z,25.24
2022-08-25T21:21:59.485Z,25.21
2022-08-25T21:24:28.357Z,25.11
2022-08-25T21:26:57.463Z,25.21
2022-08-25T21:29:28.543Z,25.01
2022-08-25T21:31:58.585Z,24.96
2022-08-25T21:34:26.267Z,25.03
2022-08-25T21:36:57.855Z,24.95
2022-08-25T21:39:27.546Z,24.82
2022-08-25T21:41:58.487Z,24.57
2022-08-25T21:44:28.028Z,24.20
2022-08-25T21:46:56.127Z,24.00
2022-08-25T21:49:24.706Z,24.14
2022-08-25T21:52:00.614Z,24.35
2022-08-25T21:54:29.173Z,24.52
2022-08-25T21:57:00.115Z,24.22
2022-08-25T21:59:30.078Z,24.39
2022-08-25T22:01:59.731Z,24.53
2022-08-25T22:04:28.136Z,24.66
2022-08-25T22:06:55.746Z,24.49
2022-08-25T22:09:26.430Z,24.48
2022-08-25T22:11:55.972Z,24.62
2022-08-25T22:14:26.234Z,24.66
2022-08-25T22:16:54.843Z,24.68
2022-08-25T22:19:23.050Z,24.59
2022-08-25T22:21:51.157Z,24.26
2022-08-25T22:24:19.268Z,24.22
2022-08-25T22:26:47.555Z,24.46
2022-08-25T22:29:24.984Z,24.44
2022-08-25T22:31:59.654Z,24.51
2022-08-25T22:34:33.185Z,24.54
2022-08-25T22:37:01.957Z,24.33
2022-08-25T22:39:32.119Z,24.08
2022-08-25T22:42:02.104Z,24.13
2022-08-25T22:44:29.202Z,23.95
2022-08-25T22:46:56.604Z,24.19
2022-08-25T22:49:23.727Z,24.27
2022-08-25T22:51:51.058Z,24.30
2022-08-25T22:54:20.932Z,24.23
2022-08-25T22:56:48.048Z,24.18
2022-08-25T22:59:15.433Z,24.11
2022-08-25T23:01:45.482Z,24.10
2022-08-25T23:04:14.711Z,23.93
2022-08-25T23:06:42.369Z,23.91
2022-08-25T23:09:12.736Z,23.84
2022-08-25T23:11:41.246Z,24.01
2022-08-25T23:14:10.970Z,24.04
2022-08-25T23:16:39.267Z,23.93
2022-08-25T23:19:06.686Z,23.83
2022-08-25T23:21:54.469Z,23.70
2022-08-25T23:24:26.900Z,23.55
2022-08-25T23:27:03.842Z,23.58
2022-08-25T23:29:34.284Z,23.57
2022-08-25T23:32:04.062Z,23.66
2022-08-25T23:34:31.287Z,23.43
2022-08-25T23:37:01.467Z,23.49
2022-08-25T23:39:28.621Z,23.43
2022-08-25T23:41:55.782Z,23.51
2022-08-25T23:44:23.318Z,23.49
2022-08-25T23:46:52.851Z,23.36
2022-08-25T23:49:22.296Z,23.22
2022-08-25T23:51:52.777Z,23.24
2022-08-25T23:54:21.401Z,23.36
2022-08-25T23:56:52.239Z,23.11
2022-08-25T23:59:24.661Z,22.98
